Startpagina
METAR-TAF:

METAR-TAF

Vliegvelden :

Flughafen Mönchengladbach

Mönchengladbach, Duitsland

breedte: 51-13-49N, lengte: 006-30-16E, hoogte: 38 m

Actueel weer

Dit bericht is 39 minuten geleden gemaakt, om 17:50 UTC
Wind 8 kt uit het noorden
Temperatuur 17°C
Vochtigheid 77%
Druk 1011 hPa
Zicht 10 km of meer
Weinig wolken op 2500 ft

METAR: EDLN 211750Z 35008KT 9999 FEW025 17/13 Q1011

Tijdstip: 20:29 (18:29 UTC)

Verwachting

Dit bericht is 1 uur en het 29 minuten geleden gemaakt, om 17:00 UTC
Verwachting geldig van 21 om 18 UTC tot 22 om 03 UTC
Wind 6 kt uit het noorden
Zicht 10 km of meer
Gebroken wolken op 2000 ft

TAF: EDLN 211700Z 2118/2203 36006KT 9999 BKN020

Waarnemingen en weersverwachtingen van meer dan 4000 vliegvelden (METAR en TAF).

De beschikbare stations zijn de gele en rode punten op de kaart.

Ga met uw muis naar het station om de naam te zien.

Klik dan om waarnemingen en weersverwachtingen te zien.

kaart wijzigen: klik op de groene knoppen met een zwart kruis om in te zoomen, op de groene knop met een streepje om uit te zoomen of op de groene pijlen voor aangrenzende kaarten.


METAR-TAF: